Archival Weather

Alykel

Alykel, Russia (UOOO)

Report from: Tuesday, November 21, 2023 7:00 AM UTC
Current time: Friday, July 19, 2024 2:00 AM UTC

Current weather – Weather history – Daily summaries
Weather forecast

Present weatherLight snow, drifting snow
Temperature-27.0°C (-16.6°F)
Wind chill-39.7°C (-39.5°F)
Dew point-30.0°C (-22.0°F)
Winds 11.7 kts (6 m/s, 13.4 mph) South-Southwest (200°)
Visibility2.9 mi. (4.7 km)
Clouds Ceiling: Overcast 2,300 ft. (701 m)
Altimeter30.18 in.Hg (1022 mB)
Precip. events QF 6:30 PM
Relative humidity75 %
Density altitude-5,763 ft. (-1,757 m)
Remarks No significant changes expected in the next two hours
Flight conditions Instrument Meteorological Conditions
Raw dataUOOO 210700Z 20006MPS 4700 -SN DRSN OVC023 M27/M30 Q1022 R19/35//60 NOSIG RMK QFE750/1000
An error has occurred. This application may no longer respond until reloaded. Reload 🗙